Time;durP1;ratioP1;P1;durP2;ratioP2;P2;SDS_P1;SDS_P2;PMS_P1;PMS_P2;Temp;Humidity;BMP_temperature;BMP_pressure;BME280_temperature;BME280_humidity;BME280_pressure;Samples;Min_cycle;Max_cycle;Signal;HPM_P1;HPM_P2
2022/12/21 00:01:22;;;;;;;0.90;0.90;;;;;;;-0.14;100.00;100723.47;5051165;28;20225;-64
2022/12/21 00:03:53;;;;;;;0.70;0.70;;;;;;;-0.16;100.00;100730.09;5051413;28;20216;-64
2022/12/21 00:06:21;;;;;;;0.70;0.70;;;;;;;-0.15;100.00;100716.72;5052648;28;20740;-64
2022/12/21 00:08:49;;;;;;;0.60;0.60;;;;;;;-0.19;100.00;100714.88;5050949;28;20565;-64
2022/12/21 00:11:18;;;;;;;0.70;0.70;;;;;;;-0.17;100.00;100718.34;5051459;28;20207;-64
2022/12/21 00:13:45;;;;;;;0.80;0.80;;;;;;;-0.18;100.00;100715.75;5054596;28;20585;-64
2022/12/21 00:16:13;;;;;;;0.70;0.70;;;;;;;-0.19;100.00;100709.84;5051075;28;20207;-64
2022/12/21 00:18:41;;;;;;;0.77;0.77;;;;;;;-0.17;100.00;100703.22;5050961;28;20217;-64
2022/12/21 00:21:10;;;;;;;0.80;0.80;;;;;;;-0.15;100.00;100698.22;5051285;28;20213;-63
2022/12/21 00:23:37;;;;;;;0.90;0.90;;;;;;;-0.22;100.00;100683.69;5052879;28;20193;-64
2022/12/21 00:26:07;;;;;;;0.87;0.87;;;;;;;-0.12;100.00;100696.66;5051097;28;20205;-63
2022/12/21 00:28:35;;;;;;;0.60;0.60;;;;;;;-0.13;100.00;100705.00;5051277;28;20252;-64
2022/12/21 00:31:07;;;;;;;0.70;0.70;;;;;;;-0.15;100.00;100706.63;5051145;28;20270;-64
2022/12/21 00:33:34;;;;;;;0.70;0.70;;;;;;;-0.16;100.00;100689.78;5048542;28;20687;-64
2022/12/21 00:36:00;;;;;;;0.70;0.70;;;;;;;-0.13;100.00;100689.88;5050549;28;20291;-64
2022/12/21 00:38:27;;;;;;;0.70;0.70;;;;;;;-0.13;100.00;100684.84;5050763;28;20295;-63
2022/12/21 00:40:56;;;;;;;0.77;0.77;;;;;;;-0.22;100.00;100668.56;5050741;28;20204;-64
2022/12/21 00:43:23;;;;;;;1.20;1.20;;;;;;;-0.13;100.00;100691.56;5050815;28;20201;-64
2022/12/21 00:45:52;;;;;;;0.90;0.90;;;;;;;-0.39;100.00;100652.91;5050953;28;20209;-64
2022/12/21 00:48:19;;;;;;;1.17;1.13;;;;;;;-0.16;100.00;100681.41;5050648;28;20251;-64
2022/12/21 00:50:46;;;;;;;0.80;0.80;;;;;;;-0.17;100.00;100677.16;5050791;28;20627;-64
2022/12/21 00:53:12;;;;;;;0.70;0.70;;;;;;;-0.14;100.00;100678.13;5050958;28;20201;-64
2022/12/21 00:55:39;;;;;;;0.70;0.70;;;;;;;-0.18;100.00;100670.38;5050033;28;20209;-64
2022/12/21 00:58:06;;;;;;;1.00;1.00;;;;;;;-0.16;100.00;100668.78;5050423;28;20205;-64
2022/12/21 01:00:33;;;;;;;0.80;0.80;;;;;;;-0.15;100.00;100660.41;5050436;28;20228;-64
2022/12/21 01:03:01;;;;;;;0.57;0.57;;;;;;;-0.15;100.00;100660.41;5050291;28;20253;-64
2022/12/21 01:05:29;;;;;;;1.00;1.00;;;;;;;-0.22;100.00;100659.34;5049682;28;20224;-64
2022/12/21 01:07:56;;;;;;;3.23;3.17;;;;;;;-0.24;100.00;100655.94;5050560;28;20303;-63
2022/12/21 01:10:23;;;;;;;2.50;2.37;;;;;;;-0.26;100.00;100657.53;5050267;28;20204;-64
2022/12/21 01:12:49;;;;;;;2.30;2.30;;;;;;;-0.22;100.00;100655.97;5050243;28;20209;-63
2022/12/21 01:15:16;;;;;;;0.70;0.70;;;;;;;-0.20;100.00;100651.84;5050094;28;20583;-64
2022/12/21 01:17:43;;;;;;;0.60;0.60;;;;;;;-0.21;100.00;100642.56;5050119;28;20197;-64
2022/12/21 01:20:12;;;;;;;1.27;1.17;;;;;;;-0.27;100.00;100645.75;5050115;28;20287;-64
2022/12/21 01:22:39;;;;;;;0.70;0.70;;;;;;;-0.28;100.00;100628.91;5048957;28;20569;-63
2022/12/21 01:25:06;;;;;;;1.00;1.00;;;;;;;-0.32;100.00;100632.13;5053249;28;20218;-64
2022/12/21 01:27:33;;;;;;;0.63;0.63;;;;;;;-0.30;100.00;100639.75;5050015;28;20258;-64
2022/12/21 01:29:59;;;;;;;1.20;1.20;;;;;;;-0.38;100.00;100631.94;5050156;28;20549;-64
2022/12/21 01:32:26;;;;;;;0.87;0.87;;;;;;;-0.34;100.00;100638.78;5049487;28;20197;-63
2022/12/21 01:34:53;;;;;;;0.70;0.70;;;;;;;-0.34;100.00;100641.31;5050190;28;20258;-64
2022/12/21 01:37:21;;;;;;;0.80;0.80;;;;;;;-0.33;100.00;100625.41;5049727;28;20213;-64
2022/12/21 01:39:48;;;;;;;0.60;0.60;;;;;;;-0.33;100.00;100632.97;5050000;28;20201;-63
2022/12/21 01:42:15;;;;;;;0.70;0.70;;;;;;;-0.33;100.00;100619.50;5050262;28;20201;-64
2022/12/21 01:45:04;;;;;;;0.70;0.70;;;;;;;-0.32;100.00;100621.22;5050351;28;20213;-64
2022/12/21 01:47:39;;;;;;;0.80;0.80;;;;;;;-0.31;100.00;100620.41;5050208;28;20189;-64
2022/12/21 01:50:23;;;;;;;0.80;0.80;;;;;;;-0.32;100.00;100614.50;5050313;28;20218;-64
2022/12/21 01:52:53;;;;;;;0.60;0.60;;;;;;;-0.37;100.00;100607.59;5049794;28;20283;-63
2022/12/21 01:55:20;;;;;;;0.77;0.77;;;;;;;-0.33;100.00;100610.28;5051486;28;20668;-64
2022/12/21 01:57:47;;;;;;;0.70;0.70;;;;;;;-0.31;100.00;100610.31;5050226;28;20196;-64
2022/12/21 02:00:15;;;;;;;0.80;0.80;;;;;;;-0.47;100.00;100586.28;5049641;28;20208;-63
2022/12/21 02:02:48;;;;;;;0.70;0.70;;;;;;;-0.37;100.00;100605.94;5049801;28;20197;-64
2022/12/21 02:05:24;;;;;;;0.80;0.80;;;;;;;-0.41;100.00;100606.66;5049542;28;20217;-63
2022/12/21 02:07:57;;;;;;;0.70;0.70;;;;;;;-0.44;100.00;100600.66;5050120;28;20204;-64
2022/12/21 02:10:23;;;;;;;3.23;2.40;;;;;;;-0.61;100.00;100577.41;5053840;28;20722;-64
2022/12/21 02:12:55;;;;;;;0.70;0.70;;;;;;;-0.48;100.00;100604.72;5053725;28;20274;-64
2022/12/21 02:15:28;;;;;;;0.73;0.73;;;;;;;-0.52;100.00;100597.03;5053476;28;20201;-63
2022/12/21 02:18:06;;;;;;;0.60;0.60;;;;;;;-0.56;100.00;100598.59;5053463;28;20618;-64
2022/12/21 02:21:05;;;;;;;0.90;0.90;;;;;;;-0.63;100.00;100584.06;5053095;28;20196;-64
2022/12/21 02:23:50;;;;;;;0.70;0.70;;;;;;;-0.58;100.00;100597.66;5047379;28;20209;-63
2022/12/21 02:26:57;;;;;;;0.67;0.67;;;;;;;-0.58;100.00;100587.59;5052858;28;20577;-64
2022/12/21 02:30:01;;;;;;;0.70;0.70;;;;;;;-0.56;100.00;100591.03;5045561;28;20196;-63
2022/12/21 02:32:40;;;;;;;0.70;0.70;;;;;;;-0.59;100.00;100585.91;5052504;28;20208;-64
2022/12/21 02:35:15;;;;;;;0.73;0.73;;;;;;;-0.64;100.00;100587.38;5053087;28;20246;-64
2022/12/21 02:37:50;;;;;;;0.90;0.90;;;;;;;-0.71;100.00;100580.47;5052885;28;20250;-63
2022/12/21 02:40:22;;;;;;;0.80;0.80;;;;;;;-0.83;100.00;100580.88;5052803;28;20215;-63
2022/12/21 02:45:49;;;;;;;0.87;0.87;;;;;;;-0.89;100.00;100577.31;5052204;28;20224;-63
2022/12/21 02:48:23;;;;;;;0.70;0.70;;;;;;;-0.89;100.00;100577.31;5052882;28;20201;-63
2022/12/21 02:50:58;;;;;;;0.70;0.70;;;;;;;-0.90;100.00;100565.50;5051578;28;20196;-64
2022/12/21 02:53:31;;;;;;;0.80;0.80;;;;;;;-0.97;100.00;100561.09;5052166;28;20204;-63
2022/12/21 02:55:58;;;;;;;0.70;0.70;;;;;;;-1.02;100.00;100560.06;5052550;28;20276;-63
2022/12/21 02:58:25;;;;;;;0.77;0.77;;;;;;;-1.09;100.00;100547.28;5052343;28;20196;-63
2022/12/21 03:01:06;;;;;;;0.70;0.70;;;;;;;-1.10;100.00;100559.81;5052296;28;20252;-64
2022/12/21 03:03:56;;;;;;;0.80;0.80;;;;;;;-1.21;100.00;100546.00;5052026;28;20196;-63
2022/12/21 03:06:47;;;;;;;0.67;0.67;;;;;;;-1.15;100.00;100557.13;5052223;28;20212;-65
2022/12/21 03:09:34;;;;;;;0.80;0.80;;;;;;;-1.23;100.00;100553.47;5051725;28;20201;-64
2022/12/21 03:12:07;;;;;;;0.80;0.80;;;;;;;-1.24;100.00;100546.75;5052226;28;20193;-63
2022/12/21 03:14:45;;;;;;;0.70;0.70;;;;;;;-1.21;100.00;100541.81;5052250;28;20197;-63
2022/12/21 03:17:20;;;;;;;0.70;0.70;;;;;;;-1.20;100.00;100533.50;5050819;28;20216;-64
2022/12/21 03:19:56;;;;;;;0.80;0.80;;;;;;;-1.16;100.00;100540.31;5050923;28;20208;-64
2022/12/21 03:22:31;;;;;;;0.90;0.90;;;;;;;-1.14;100.00;100533.69;5050447;28;20196;-64
2022/12/21 03:25:06;;;;;;;0.70;0.70;;;;;;;-1.14;100.00;100532.84;5052067;28;21071;-63
2022/12/21 03:27:36;;;;;;;0.70;0.70;;;;;;;-1.15;100.00;100534.50;5051899;28;20691;-63
2022/12/21 03:30:07;;;;;;;0.70;0.70;;;;;;;-1.13;100.00;100530.34;5051606;28;20201;-64
2022/12/21 03:32:40;;;;;;;0.60;0.60;;;;;;;-1.14;100.00;100530.31;5051828;28;20631;-64
2022/12/21 03:35:15;;;;;;;0.53;0.53;;;;;;;-1.15;100.00;100526.94;5051157;28;20207;-63
2022/12/21 03:37:44;;;;;;;0.67;0.67;;;;;;;-1.11;100.00;100528.78;5051667;28;20254;-63
2022/12/21 03:40:15;;;;;;;0.70;0.70;;;;;;;-1.09;100.00;100536.34;5052083;28;20331;-63
2022/12/21 03:42:47;;;;;;;0.70;0.70;;;;;;;-1.07;100.00;100539.81;5052142;28;20208;-64
2022/12/21 03:45:18;;;;;;;0.73;0.73;;;;;;;-1.09;100.00;100533.84;5052943;28;20570;-63
2022/12/21 03:47:50;;;;;;;0.60;0.60;;;;;;;-1.07;100.00;100538.09;5051808;28;20582;-63
2022/12/21 03:50:21;;;;;;;0.90;0.90;;;;;;;-1.16;100.00;100525.22;5051785;28;20262;-64
2022/12/21 03:52:54;;;;;;;0.70;0.70;;;;;;;-1.08;100.00;100533.91;5051142;28;20303;-63
2022/12/21 03:55:25;;;;;;;0.80;0.80;;;;;;;-1.08;100.00;100528.88;5051046;28;20189;-63
2022/12/21 03:57:54;;;;;;;0.97;0.97;;;;;;;-1.05;100.00;100533.16;5050642;28;20205;-63
2022/12/21 04:00:21;;;;;;;0.80;0.80;;;;;;;-1.07;100.00;100528.03;5050873;28;20238;-64
2022/12/21 04:02:56;;;;;;;0.80;0.80;;;;;;;-1.10;100.00;100522.91;5050537;28;20200;-63
2022/12/21 04:05:30;;;;;;;1.07;1.07;;;;;;;-1.10;100.00;100530.47;5051144;28;20215;-63
2022/12/21 04:07:57;;;;;;;0.90;0.90;;;;;;;-1.10;100.00;100530.47;5050647;28;20208;-63
2022/12/21 04:10:26;;;;;;;0.60;0.60;;;;;;;-1.21;100.00;100510.78;5051269;28;20197;-63
2022/12/21 04:12:52;;;;;;;0.70;0.70;;;;;;;-1.21;100.00;100520.84;5051429;28;20661;-63
2022/12/21 04:15:20;;;;;;;0.67;0.67;;;;;;;-1.19;100.00;100527.63;5051128;28;20740;-63
2022/12/21 04:17:49;;;;;;;0.70;0.70;;;;;;;-1.13;100.00;100529.53;5051460;28;20204;-63
2022/12/21 04:20:16;;;;;;;0.70;0.70;;;;;;;-1.18;100.00;100526.84;5051090;28;20204;-63
2022/12/21 04:28:21;;;;;;;0.70;0.70;;;;;;;-1.20;100.00;100528.47;5050947;28;20584;-63
2022/12/21 04:30:48;;;;;;;0.70;0.70;;;;;;;-1.25;100.00;100524.03;5050852;28;20680;-63
2022/12/21 04:33:16;;;;;;;1.00;1.00;;;;;;;-1.35;100.00;100506.91;5050475;28;20223;-63
2022/12/21 04:38:25;;;;;;;0.83;0.83;;;;;;;-1.25;100.00;100519.03;5050793;28;20322;-63
2022/12/21 04:40:53;;;;;;;0.70;0.70;;;;;;;-1.25;100.00;100508.97;5050601;28;20201;-63
2022/12/21 04:43:20;;;;;;;0.77;0.77;;;;;;;-1.24;100.00;100514.06;5050647;28;20203;-63
2022/12/21 04:45:47;;;;;;;0.67;0.67;;;;;;;-1.24;100.00;100519.09;5050573;28;20240;-63
2022/12/21 04:48:14;;;;;;;0.70;0.70;;;;;;;-1.26;100.00;100510.59;5050290;28;20205;-63
2022/12/21 04:50:43;;;;;;;1.07;1.07;;;;;;;-1.25;100.00;100509.81;5049067;28;20678;-64
2022/12/21 04:53:10;;;;;;;0.73;0.73;;;;;;;-1.41;100.00;100482.41;5050949;28;20212;-63
2022/12/21 04:55:38;;;;;;;0.70;0.70;;;;;;;-1.27;100.00;100513.94;5050367;28;20200;-63
2022/12/21 04:58:05;;;;;;;0.80;0.80;;;;;;;-1.26;100.00;100513.13;5050379;28;20231;-63
2022/12/21 05:00:32;;;;;;;0.70;0.70;;;;;;;-1.26;100.00;100508.09;5050462;28;20710;-63
2022/12/21 05:02:59;;;;;;;0.70;0.70;;;;;;;-1.27;100.00;100506.41;5050393;28;20193;-63
2022/12/21 05:05:26;;;;;;;0.70;0.70;;;;;;;-1.27;100.00;100503.03;5049973;28;20216;-63
2022/12/21 05:07:53;;;;;;;0.70;0.70;;;;;;;-1.29;100.00;100497.94;5051226;28;20204;-63
2022/12/21 05:10:20;;;;;;;0.80;0.80;;;;;;;-1.28;100.00;100494.63;5049741;28;20211;-63
2022/12/21 05:12:48;;;;;;;0.73;0.73;;;;;;;-1.28;100.00;100494.63;5050280;28;20305;-63
2022/12/21 05:15:16;;;;;;;0.70;0.70;;;;;;;-1.26;100.00;100497.19;5048271;28;20665;-63
2022/12/21 05:17:44;;;;;;;0.70;0.70;;;;;;;-1.26;100.00;100499.72;5050209;28;20193;-63
2022/12/21 05:20:11;;;;;;;0.87;0.87;;;;;;;-1.31;100.00;100484.47;5050998;28;20197;-63
2022/12/21 05:22:37;;;;;;;0.70;0.70;;;;;;;-1.31;100.00;100479.44;5050578;28;20200;-62
2022/12/21 05:25:05;;;;;;;0.80;0.80;;;;;;;-1.33;100.00;100477.66;5050305;28;20201;-63
2022/12/21 05:27:32;;;;;;;0.70;0.70;;;;;;;-1.33;100.00;100481.03;5049900;28;20207;-63
2022/12/21 05:30:00;;;;;;;0.67;0.67;;;;;;;-1.34;100.00;100469.25;5050177;28;20196;-64
2022/12/21 05:32:27;;;;;;;0.80;0.80;;;;;;;-1.35;100.00;100477.59;5050147;28;20287;-63
2022/12/21 05:34:53;;;;;;;0.63;0.63;;;;;;;-1.34;100.00;100474.28;5050039;28;20204;-63
2022/12/21 05:37:20;;;;;;;0.70;0.70;;;;;;;-1.34;100.00;100470.91;5049762;28;20204;-63
2022/12/21 05:39:47;;;;;;;0.97;0.97;;;;;;;-1.33;100.00;100470.13;5050018;28;20603;-63
2022/12/21 05:42:14;;;;;;;0.77;0.77;;;;;;;-1.31;100.00;100469.38;5051886;28;20204;-63
2022/12/21 05:44:40;;;;;;;0.70;0.70;;;;;;;-1.38;100.00;100459.03;5053768;28;20233;-63
2022/12/21 05:47:09;;;;;;;0.60;0.60;;;;;;;-1.28;100.00;100469.47;5053060;28;20545;-63
2022/12/21 05:49:35;;;;;;;0.73;0.73;;;;;;;-1.35;100.00;100477.59;5053078;28;20197;-63
2022/12/21 05:52:02;;;;;;;0.83;0.83;;;;;;;-1.36;100.00;100470.88;5053724;28;20203;-63
2022/12/21 05:54:29;;;;;;;0.77;0.77;;;;;;;-1.36;100.00;100470.88;5053737;28;20204;-63
2022/12/21 05:56:56;;;;;;;0.70;0.70;;;;;;;-1.39;100.00;100473.25;5053279;28;20284;-62
2022/12/21 05:59:23;;;;;;;0.70;0.70;;;;;;;-1.39;100.00;100470.75;5054179;28;20243;-63
2022/12/21 06:01:50;;;;;;;0.80;0.80;;;;;;;-1.47;100.00;100447.00;5054664;28;20275;-63
2022/12/21 06:04:18;;;;;;;0.90;0.90;;;;;;;-1.36;100.00;100463.34;5053120;28;20201;-65
2022/12/21 06:06:46;;;;;;;0.60;0.60;;;;;;;-1.35;100.00;100465.03;5052858;28;20274;-63
2022/12/21 06:09:13;;;;;;;0.70;0.70;;;;;;;-1.35;100.00;100466.69;5053392;28;20295;-63
2022/12/21 06:11:40;;;;;;;0.63;0.63;;;;;;;-1.37;100.00;100466.63;5053138;28;20704;-63
2022/12/21 06:14:06;;;;;;;0.70;0.70;;;;;;;-1.43;100.00;100456.38;5049336;28;20200;-63
2022/12/21 06:16:33;;;;;;;0.70;0.70;;;;;;;-1.42;100.00;100460.59;5050986;28;20205;-63
2022/12/21 06:19:00;;;;;;;0.93;0.93;;;;;;;-1.42;100.00;100463.09;5048893;28;20848;-63
2022/12/21 06:21:28;;;;;;;1.10;1.10;;;;;;;-1.41;100.00;100462.31;5051445;28;20207;-63
2022/12/21 06:23:55;;;;;;;0.70;0.70;;;;;;;-1.38;100.00;100466.56;5051364;28;20212;-63
2022/12/21 06:26:22;;;;;;;0.70;0.70;;;;;;;-1.39;100.00;100465.72;5052424;28;20213;-63
2022/12/21 06:28:50;;;;;;;0.97;0.97;;;;;;;-1.40;100.00;100469.06;5053187;28;20204;-63
2022/12/21 06:31:18;;;;;;;0.80;0.80;;;;;;;-1.46;100.00;100457.94;5053107;28;20201;-63
2022/12/21 06:33:45;;;;;;;0.70;0.70;;;;;;;-1.40;100.00;100469.06;5052970;28;20197;-63
2022/12/21 06:36:13;;;;;;;0.70;0.70;;;;;;;-1.37;100.00;100473.31;5051961;28;20197;-63
2022/12/21 06:38:42;;;;;;;0.70;0.70;;;;;;;-1.37;100.00;100469.16;5052410;28;20208;-63
2022/12/21 06:41:10;;;;;;;0.70;0.70;;;;;;;-1.34;100.00;100466.75;5051702;28;20201;-63
2022/12/21 06:43:38;;;;;;;0.90;0.90;;;;;;;-1.34;100.00;100466.75;5052950;28;20699;-63
2022/12/21 06:46:07;;;;;;;0.70;0.70;;;;;;;-1.33;100.00;100460.06;5051348;28;20223;-63
2022/12/21 06:48:36;;;;;;;0.70;0.70;;;;;;;-1.31;100.00;100458.44;5052572;28;20296;-63
2022/12/21 06:51:05;;;;;;;0.73;0.73;;;;;;;-1.25;100.00;100459.50;5052121;28;20204;-63
2022/12/21 06:53:34;;;;;;;0.60;0.60;;;;;;;-1.31;100.00;100453.41;5052339;28;20631;-63
2022/12/21 06:56:05;;;;;;;0.73;0.73;;;;;;;-1.35;100.00;100457.47;5052676;28;20192;-63
2022/12/21 06:58:33;;;;;;;0.80;0.80;;;;;;;-1.33;100.00;100450.88;5050835;28;20212;-63
2022/12/21 07:01:05;;;;;;;0.97;0.97;;;;;;;-1.32;100.00;100451.69;5052416;28;20305;-63
2022/12/21 07:03:32;;;;;;;0.60;0.60;;;;;;;-1.34;100.00;100444.09;5051575;28;20196;-63
2022/12/21 07:06:01;;;;;;;0.70;0.70;;;;;;;-1.37;100.00;100449.03;5051037;28;20224;-63
2022/12/21 07:08:28;;;;;;;0.60;0.60;;;;;;;-1.35;100.00;100447.41;5051781;28;20204;-63
2022/12/21 07:10:58;;;;;;;0.90;0.90;;;;;;;-1.32;100.00;100442.50;5051995;28;20200;-63
2022/12/21 07:13:27;;;;;;;1.47;1.47;;;;;;;-1.33;100.00;100445.84;5052189;28;20197;-63
2022/12/21 07:15:55;;;;;;;0.67;0.67;;;;;;;-1.30;100.00;100435.88;5050664;28;20679;-64
2022/12/21 07:18:22;;;;;;;0.60;0.60;;;;;;;-1.30;100.00;100430.84;5050911;28;20412;-64
2022/12/21 07:20:49;;;;;;;0.70;0.70;;;;;;;-1.24;100.00;100430.19;5050232;28;20270;-64
2022/12/21 07:23:16;;;;;;;0.60;0.60;;;;;;;-1.19;100.00;100423.63;5051179;28;20204;-64
2022/12/21 07:25:42;;;;;;;0.70;0.70;;;;;;;-1.16;100.00;100423.72;5050183;28;20196;-62
2022/12/21 07:28:09;;;;;;;0.73;0.73;;;;;;;-1.14;100.00;100417.97;5048041;28;20668;-63
2022/12/21 07:30:37;;;;;;;0.60;0.60;;;;;;;-1.16;100.00;100419.56;5046765;28;20274;-63
2022/12/21 07:33:04;;;;;;;0.70;0.70;;;;;;;-1.11;100.00;100420.56;5048384;28;20204;-63
2022/12/21 07:35:32;;;;;;;0.70;0.70;;;;;;;-1.12;100.00;100401.25;5049660;28;20238;-63
2022/12/21 07:37:58;;;;;;;0.70;0.70;;;;;;;-1.03;100.00;100414.94;5051231;28;20653;-63
2022/12/21 07:40:25;;;;;;;0.70;0.70;;;;;;;-0.99;100.00;100412.56;5051482;28;20197;-63
2022/12/21 07:42:52;;;;;;;0.90;0.90;;;;;;;-1.00;100.00;100404.97;5051039;28;20201;-63
2022/12/21 07:45:19;;;;;;;1.67;1.67;;;;;;;-0.97;100.00;100410.09;5049717;28;20211;-62
2022/12/21 07:47:48;;;;;;;1.03;1.03;;;;;;;-0.91;100.00;100410.28;5049854;28;20217;-62
2022/12/21 07:50:15;;;;;;;0.70;0.70;;;;;;;-1.02;100.00;100387.28;5049524;28;20196;-62
2022/12/21 07:52:41;;;;;;;0.77;0.77;;;;;;;-0.77;100.00;100414.06;5050645;28;20201;-62
2022/12/21 07:55:09;;;;;;;0.90;0.90;;;;;;;-0.73;100.00;100411.72;5047608;28;20219;-63
2022/12/21 07:57:36;;;;;;;0.70;0.70;;;;;;;-0.66;100.00;100407.72;5050066;28;20204;-63
2022/12/21 08:00:04;;;;;;;0.73;0.73;;;;;;;-0.60;100.00;100402.88;5049890;28;20193;-62
2022/12/21 08:02:31;;;;;;;0.67;0.67;;;;;;;-0.50;100.00;100409.91;5049661;28;20292;-63
2022/12/21 08:05:00;;;;;;;0.90;0.90;;;;;;;-0.46;100.00;100399.13;5049875;28;20254;-63
2022/12/21 08:07:26;;;;;;;0.67;0.67;;;;;;;-0.36;100.00;100403.63;5049022;28;20307;-63
2022/12/21 08:09:53;;;;;;;0.70;0.70;;;;;;;-0.28;100.00;100411.38;5049709;28;20204;-64
2022/12/21 08:12:20;;;;;;;0.70;0.70;;;;;;;-0.18;100.00;100414.22;5050220;28;20208;-63
2022/12/21 08:14:47;;;;;;;0.50;0.50;;;;;;;-0.11;100.00;100406.03;5051529;28;20666;-64
2022/12/21 08:17:14;;;;;;;0.67;0.67;;;;;;;-0.03;100.00;100407.09;5050575;28;20897;-64
2022/12/21 08:19:41;;;;;;;0.80;0.80;;;;;;;0.01;100.00;100410.56;5050312;28;20627;-64
2022/12/21 08:22:09;;;;;;;0.80;0.80;;;;;;;0.00;100.00;100407.16;5050237;28;20201;-64
2022/12/21 08:24:36;;;;;;;0.60;0.60;;;;;;;0.06;100.00;100388.00;5046620;28;20236;-63
2022/12/21 08:27:03;;;;;;;0.60;0.60;;;;;;;0.27;100.00;100398.66;5049197;28;20217;-65
2022/12/21 08:29:30;;;;;;;0.80;0.80;;;;;;;0.39;100.00;100399.84;5049929;28;20196;-64
2022/12/21 08:31:56;;;;;;;0.60;0.60;;;;;;;0.47;100.00;100400.03;5049068;28;20212;-64
2022/12/21 08:34:23;;;;;;;0.60;0.60;;;;;;;0.60;100.00;100394.50;5049661;28;20296;-64
2022/12/21 08:36:50;;;;;;;0.70;0.70;;;;;;;0.69;100.00;100399.78;5049458;28;20656;-64
2022/12/21 08:39:18;;;;;;;0.63;0.63;;;;;;;0.77;100.00;100398.31;5050537;28;20200;-64
2022/12/21 08:41:45;;;;;;;0.80;0.80;;;;;;;0.93;100.00;100389.44;5050747;28;20619;-64
2022/12/21 08:44:12;;;;;;;0.60;0.60;;;;;;;1.06;100.00;100388.91;5050885;28;20201;-64
2022/12/21 08:46:39;;;;;;;0.70;0.70;;;;;;;1.17;100.00;100384.09;5048403;28;20220;-65
2022/12/21 08:49:06;;;;;;;0.70;0.70;;;;;;;1.27;100.00;100383.50;5050036;28;20197;-64
2022/12/21 08:51:32;;;;;;;0.60;0.60;;;;;;;1.33;100.00;100371.00;5050337;28;20235;-65
2022/12/21 08:53:59;;;;;;;4.13;1.97;;;;;;;1.46;100.00;100367.91;5050156;28;20197;-65
2022/12/21 08:56:27;;;;;;;0.67;0.67;;;;;;;1.62;100.00;100362.38;5050655;28;20718;-65
2022/12/21 08:58:54;;;;;;;1.20;1.20;;;;;;;1.73;100.00;100358.41;5050269;28;20577;-65
2022/12/21 09:01:24;;;;;;;0.63;0.63;;;;;;;1.80;100.00;100355.19;5050012;28;20232;-65
2022/12/21 09:03:52;;;;;;;0.70;0.70;;;;;;;1.86;100.00;100350.25;5049731;28;20201;-65
2022/12/21 09:06:19;;;;;;;0.70;0.70;;;;;;;1.91;100.00;100336.00;5048486;28;20197;-65
2022/12/21 09:08:46;;;;;;;0.80;0.80;;;;;;;2.03;100.00;100331.22;5049314;28;20211;-65
2022/12/21 09:11:15;;;;;;;0.60;0.60;;;;;;;2.10;100.00;100325.41;5050330;28;20200;-65
2022/12/21 09:13:43;;;;;;;1.07;1.07;;;;;;;2.19;100.00;100323.91;5050438;28;20204;-65
2022/12/21 09:16:15;;;;;;;0.60;0.60;;;;;;;2.32;100.00;100330.88;5048875;28;20581;-64
2022/12/21 09:18:43;;;;;;;1.00;1.00;;;;;;;2.39;100.00;100322.56;5053373;28;20205;-64
2022/12/21 09:21:11;;;;;;;0.50;0.50;;;;;;;2.47;100.00;100321.00;5053783;28;20546;-64
2022/12/21 09:23:38;;;;;;;0.63;0.63;;;;;;;2.55;100.00;100316.94;5054685;28;20703;-64
2022/12/21 09:26:06;;;;;;;0.70;0.70;;;;;;;2.58;100.00;100319.53;5054160;28;20315;-65
2022/12/21 09:28:33;;;;;;;0.50;0.50;;;;;;;2.71;100.00;100311.31;5054402;28;20220;-65
2022/12/21 09:31:08;;;;;;;0.60;0.60;;;;;;;2.79;100.00;100312.25;5054397;28;20193;-65
2022/12/21 09:33:35;;;;;;;0.73;0.73;;;;;;;2.90;100.00;100313.28;5054055;28;20339;-65
2022/12/21 09:36:02;;;;;;;0.50;0.50;;;;;;;3.02;100.00;100310.06;5054333;28;20197;-65
2022/12/21 09:38:29;;;;;;;0.60;0.60;;;;;;;3.11;100.00;100308.53;5053772;28;20692;-65
2022/12/21 09:41:01;;;;;;;0.70;0.70;;;;;;;3.22;100.00;100302.75;5054146;28;20200;-65
2022/12/21 09:43:36;;;;;;;0.70;0.70;;;;;;;3.23;100.00;100299.41;5053803;28;20197;-64
2022/12/21 09:46:06;;;;;;;0.60;0.60;;;;;;;3.33;100.00;100298.69;5054186;28;20211;-65
2022/12/21 09:48:40;;;;;;;0.60;0.60;;;;;;;3.43;100.00;100286.16;5053625;28;20209;-65
2022/12/21 09:51:14;;;;;;;0.60;0.60;;;;;;;3.51;100.00;100294.72;5054120;28;20657;-65
2022/12/21 09:53:45;;;;;;;0.70;0.70;;;;;;;3.59;100.00;100288.03;5051860;28;20200;-65
2022/12/21 09:56:17;;;;;;;0.70;0.70;;;;;;;3.63;97.52;100287.25;5053601;28;20622;-65
2022/12/21 09:58:48;;;;;;;0.53;0.53;;;;;;;3.76;98.19;100284.84;5053773;28;20200;-65
2022/12/21 10:01:20;;;;;;;0.53;0.53;;;;;;;3.82;98.38;100279.84;5053107;28;20224;-65
2022/12/21 10:04:11;;;;;;;0.87;0.87;;;;;;;3.82;97.02;100279.84;5053332;28;20661;-65
2022/12/21 10:06:59;;;;;;;0.50;0.50;;;;;;;3.90;95.64;100274.03;5045190;28;20208;-65
2022/12/21 10:09:50;;;;;;;0.50;0.50;;;;;;;3.91;94.84;100264.75;5052693;28;20201;-65
2022/12/21 10:12:27;;;;;;;0.53;0.53;;;;;;;4.07;97.26;100267.41;5051529;28;20227;-64
2022/12/21 10:15:08;;;;;;;0.50;0.50;;;;;;;4.09;96.63;100264.91;5052839;28;20273;-65
2022/12/21 10:17:46;;;;;;;0.70;0.70;;;;;;;4.22;97.92;100256.59;5053589;28;20199;-65
2022/12/21 10:20:28;;;;;;;0.60;0.60;;;;;;;4.19;96.67;100248.94;5053636;28;20217;-64
2022/12/21 10:22:59;;;;;;;0.60;0.60;;;;;;;4.23;95.02;100241.34;5053265;28;20299;-65
2022/12/21 10:25:35;;;;;;;0.50;0.50;;;;;;;4.39;93.94;100249.13;5053569;28;20193;-65
2022/12/21 10:28:14;;;;;;;0.60;0.60;;;;;;;4.41;94.60;100249.97;5053354;28;20216;-64
2022/12/21 10:30:46;;;;;;;0.50;0.50;;;;;;;4.50;93.94;100242.41;5052676;28;20196;-64
2022/12/21 10:33:14;;;;;;;0.60;0.60;;;;;;;4.49;93.77;100241.56;5053521;28;20718;-64
2022/12/21 10:35:42;;;;;;;0.67;0.67;;;;;;;4.44;94.02;100211.91;5053000;28;20604;-64
2022/12/21 10:38:14;;;;;;;0.57;0.57;;;;;;;4.61;93.96;100230.66;5049288;28;20208;-64
2022/12/21 10:40:44;;;;;;;0.60;0.60;;;;;;;4.61;94.01;100225.59;5051091;28;20298;-64
2022/12/21 10:43:12;;;;;;;0.60;0.60;;;;;;;4.70;93.04;100211.25;5052059;28;20692;-64
2022/12/21 10:45:39;;;;;;;0.90;0.90;;;;;;;4.70;93.35;100215.50;5052668;28;20200;-64
2022/12/21 10:48:07;;;;;;;0.63;0.63;;;;;;;4.70;93.21;100205.31;5052400;28;20608;-64
2022/12/21 10:50:38;;;;;;;0.50;0.50;;;;;;;4.75;93.84;100206.19;5052124;28;20229;-63
2022/12/21 10:53:19;;;;;;;0.50;0.50;;;;;;;4.78;93.66;100193.53;5049733;28;20681;-63
2022/12/21 10:55:47;;;;;;;0.73;0.73;;;;;;;4.76;92.92;100190.97;5048856;28;20211;-64
2022/12/21 10:58:18;;;;;;;0.40;0.40;;;;;;;4.85;93.01;100190.16;5051006;28;20619;-63
2022/12/21 11:00:59;;;;;;;0.60;0.60;;;;;;;4.92;93.13;100196.13;5047851;28;20755;-64
2022/12/21 11:03:29;;;;;;;0.50;0.50;;;;;;;4.93;92.03;100186.00;5046982;28;20205;-64
2022/12/21 11:05:56;;;;;;;0.60;0.60;;;;;;;4.83;91.99;100163.91;5049996;28;20664;-65
2022/12/21 11:08:28;;;;;;;0.60;0.60;;;;;;;4.88;92.12;100177.47;5051542;28;20213;-64
2022/12/21 11:10:56;;;;;;;0.70;0.70;;;;;;;4.95;91.42;100176.69;5052526;28;20254;-64
2022/12/21 11:13:25;;;;;;;0.50;0.50;;;;;;;4.93;90.70;100170.75;5050476;28;20209;-64
2022/12/21 11:15:55;;;;;;;0.93;0.93;;;;;;;4.88;91.75;100162.22;5050939;28;20739;-64
2022/12/21 11:18:34;;;;;;;0.50;0.50;;;;;;;4.95;91.42;100161.44;5049609;28;20204;-64
2022/12/21 11:21:01;;;;;;;0.53;0.53;;;;;;;5.03;90.97;100157.25;5051226;28;20583;-64
2022/12/21 11:23:30;;;;;;;0.53;0.53;;;;;;;5.04;91.32;100148.75;5048632;28;20201;-64
2022/12/21 11:25:57;;;;;;;0.40;0.40;;;;;;;5.06;92.18;100136.94;5051405;28;20672;-64
2022/12/21 11:28:25;;;;;;;0.57;0.57;;;;;;;5.15;91.42;100152.19;5050871;28;20270;-64
2022/12/21 11:30:54;;;;;;;1.33;1.33;;;;;;;5.17;90.94;100147.97;5049459;28;20192;-64
2022/12/21 11:33:22;;;;;;;0.43;0.43;;;;;;;5.17;91.38;100142.88;5050899;28;20201;-64
2022/12/21 11:36:11;;;;;;;0.67;0.67;;;;;;;5.17;91.10;100119.19;5049291;28;20197;-64
2022/12/21 11:38:40;;;;;;;0.50;0.50;;;;;;;5.24;90.35;100124.25;5049908;28;20196;-64
2022/12/21 11:41:16;;;;;;;0.93;0.93;;;;;;;5.23;89.11;100125.09;5050497;28;20271;-66
2022/12/21 11:43:45;;;;;;;0.70;0.70;;;;;;;5.34;89.78;100125.13;5048964;28;20205;-65
2022/12/21 11:46:35;;;;;;;1.03;1.03;;;;;;;5.44;89.89;100118.38;5049584;28;20324;-64